createdAt,value
2017-10-24T00:01:50.734Z,31.43
2017-10-24T00:04:53.048Z,32.13
2017-10-24T00:07:55.022Z,31.00
2017-10-24T00:10:57.340Z,30.87
2017-10-24T00:14:00.003Z,32.10
2017-10-24T00:17:02.303Z,33.87
2017-10-24T00:20:04.299Z,27.83
2017-10-24T00:23:07.374Z,29.03
2017-10-24T00:26:09.341Z,28.30
2017-10-24T00:29:11.674Z,34.63
2017-10-24T00:32:13.642Z,31.00
2017-10-24T00:35:16.871Z,29.17
2017-10-24T00:38:18.854Z,29.50
2017-10-24T00:41:21.118Z,30.87
2017-10-24T00:44:23.111Z,30.70
2017-10-24T00:47:25.418Z,24.67
2017-10-24T00:50:27.389Z,29.40
2017-10-24T00:53:31.203Z,26.83
2017-10-24T00:56:33.130Z,23.63
2017-10-24T00:59:35.554Z,25.60
2017-10-24T01:02:37.459Z,25.93
2017-10-24T01:05:39.774Z,24.00
2017-10-24T01:08:41.721Z,28.97
2017-10-24T01:11:44.021Z,25.27
2017-10-24T01:14:45.945Z,25.10
2017-10-24T01:17:49.013Z,27.43
2017-10-24T01:20:50.930Z,30.07
2017-10-24T01:23:54.106Z,27.10
2017-10-24T01:26:56.045Z,26.13
2017-10-24T01:29:58.381Z,26.87
2017-10-24T01:33:00.289Z,28.77
2017-10-24T01:36:02.563Z,21.80
2017-10-24T01:39:04.471Z,23.33
2017-10-24T01:42:06.735Z,24.60
2017-10-24T01:45:08.631Z,24.43
2017-10-24T01:48:11.731Z,19.00
2017-10-24T01:51:13.663Z,20.33
2017-10-24T01:54:15.905Z,20.63
2017-10-24T01:57:18.569Z,25.40
2017-10-24T02:00:20.890Z,29.47
2017-10-24T02:03:22.814Z,26.57
2017-10-24T02:06:25.164Z,32.83
2017-10-24T02:09:27.142Z,27.23
2017-10-24T02:12:30.981Z,25.57
2017-10-24T02:15:33.669Z,28.93
2017-10-24T02:18:36.044Z,32.37
2017-10-24T02:21:37.945Z,27.73
2017-10-24T02:24:40.433Z,23.53
2017-10-24T02:27:42.396Z,25.23
2017-10-24T02:30:44.694Z,21.17
2017-10-24T02:33:46.717Z,22.40
2017-10-24T02:36:49.834Z,27.90
2017-10-24T02:39:51.790Z,19.83
2017-10-24T02:42:54.053Z,26.07
2017-10-24T02:45:56.136Z,27.83
2017-10-24T02:48:58.435Z,26.33
2017-10-24T02:52:00.356Z,22.03
2017-10-24T02:55:03.423Z,23.43
2017-10-24T02:58:05.413Z,17.73
2017-10-24T03:01:07.714Z,17.87
2017-10-24T03:04:09.822Z,25.17
2017-10-24T03:07:13.142Z,26.83
2017-10-24T03:10:15.921Z,19.87
2017-10-24T03:13:19.025Z,28.07
2017-10-24T03:16:21.017Z,20.83
2017-10-24T03:19:24.814Z,13.70
2017-10-24T03:22:26.842Z,22.17
2017-10-24T03:25:29.908Z,24.37
2017-10-24T03:28:31.905Z,25.00
2017-10-24T03:31:34.154Z,24.07
2017-10-24T03:34:36.124Z,26.70
2017-10-24T03:37:38.383Z,19.67
2017-10-24T03:40:40.365Z,28.13
2017-10-24T03:43:44.184Z,31.57
2017-10-24T03:46:46.146Z,26.27
2017-10-24T03:49:48.474Z,27.53
2017-10-24T03:52:51.172Z,32.67
2017-10-24T03:55:54.250Z,29.50
2017-10-24T03:58:56.145Z,26.80
2017-10-24T04:01:59.186Z,33.37
2017-10-24T04:05:01.204Z,33.27
2017-10-24T04:08:03.544Z,33.93
2017-10-24T04:11:06.385Z,27.87
2017-10-24T04:14:08.703Z,31.13
2017-10-24T04:17:10.709Z,30.00
2017-10-24T04:20:13.021Z,30.90
2017-10-24T04:23:15.821Z,34.10
2017-10-24T04:26:18.894Z,29.57
2017-10-24T04:29:20.790Z,34.83
2017-10-24T04:32:23.088Z,27.10
2017-10-24T04:35:25.040Z,36.77
2017-10-24T04:38:27.329Z,31.87
2017-10-24T04:41:29.340Z,34.30
2017-10-24T04:44:31.634Z,31.23
2017-10-24T04:47:33.619Z,35.67
2017-10-24T04:50:35.906Z,39.77
2017-10-24T04:53:37.810Z,38.43
2017-10-24T04:56:40.971Z,32.53
2017-10-24T04:59:42.985Z,35.33
2017-10-24T05:02:46.089Z,50.20
2017-10-24T05:05:47.989Z,43.43
2017-10-24T05:08:51.065Z,43.50
2017-10-24T05:11:53.034Z,48.33
2017-10-24T05:14:55.367Z,45.00
2017-10-24T05:17:58.163Z,57.00
2017-10-24T05:21:01.243Z,61.03
2017-10-24T05:24:03.146Z,48.53
2017-10-24T05:27:05.410Z,48.27
2017-10-24T05:30:07.307Z,54.70
2017-10-24T05:33:09.607Z,42.17
2017-10-24T05:36:11.526Z,44.43
2017-10-24T05:39:14.721Z,45.20
2017-10-24T05:42:17.821Z,52.73
2017-10-24T05:45:20.917Z,48.37
2017-10-24T05:48:23.622Z,56.97
2017-10-24T05:51:26.020Z,57.53
2017-10-24T05:54:27.910Z,66.83
2017-10-24T05:57:30.984Z,73.53
2017-10-24T06:00:32.981Z,61.37
2017-10-24T06:03:35.288Z,63.00
2017-10-24T06:06:37.954Z,63.20
2017-10-24T06:09:40.341Z,62.87
2017-10-24T06:12:42.359Z,67.30
2017-10-24T06:15:45.470Z,68.70
2017-10-24T06:18:48.365Z,72.47
2017-10-24T06:21:50.634Z,65.77
2017-10-24T06:24:52.637Z,69.40
2017-10-24T06:27:54.916Z,71.70
2017-10-24T06:30:56.830Z,79.53
2017-10-24T06:33:59.893Z,83.93
2017-10-24T06:37:01.791Z,85.23
2017-10-24T06:40:04.171Z,97.37
2017-10-24T06:43:06.091Z,82.00
2017-10-24T06:46:09.161Z,81.43
2017-10-24T06:49:11.146Z,77.60
2017-10-24T06:52:13.941Z,78.27
2017-10-24T06:55:15.953Z,99.27
2017-10-24T06:58:18.243Z,100.27
2017-10-24T07:01:20.150Z,86.87
2017-10-24T07:04:22.495Z,93.83
2017-10-24T07:07:24.501Z,102.17
2017-10-24T07:10:27.619Z,108.87
2017-10-24T07:13:29.569Z,113.90
2017-10-24T07:16:31.861Z,119.20
2017-10-24T07:19:33.869Z,119.20
2017-10-24T07:22:36.197Z,114.47
2017-10-24T07:25:38.117Z,118.63
2017-10-24T07:28:40.433Z,109.57
2017-10-24T07:31:42.360Z,108.67
2017-10-24T07:34:44.694Z,107.30
2017-10-24T07:37:46.626Z,111.30
2017-10-24T07:40:49.695Z,114.97
2017-10-24T07:43:51.594Z,124.47
2017-10-24T07:46:53.893Z,101.50
2017-10-24T07:49:55.846Z,105.03
2017-10-24T07:52:58.168Z,111.87
2017-10-24T07:56:00.871Z,109.73
2017-10-24T07:59:03.979Z,110.03
2017-10-24T08:02:06.643Z,112.73
2017-10-24T08:05:08.966Z,119.17
2017-10-24T08:08:10.903Z,113.10
2017-10-24T08:11:13.241Z,109.97
2017-10-24T08:14:15.146Z,114.37
2017-10-24T08:17:17.389Z,111.50
2017-10-24T08:20:19.331Z,113.73
2017-10-24T08:23:21.682Z,103.57
2017-10-24T08:26:23.649Z,116.40
2017-10-24T08:29:26.047Z,106.93
2017-10-24T08:32:28.039Z,106.33
2017-10-24T08:35:30.327Z,102.47
2017-10-24T08:38:32.405Z,91.13
2017-10-24T08:41:34.793Z,102.37
2017-10-24T08:44:36.767Z,113.60
2017-10-24T08:47:39.091Z,94.57
2017-10-24T08:50:41.784Z,92.97
2017-10-24T08:53:44.074Z,85.80
2017-10-24T08:56:46.774Z,94.23
2017-10-24T08:59:49.021Z,90.60
2017-10-24T09:02:51.042Z,82.90
2017-10-24T09:06:12.087Z,75.63
2017-10-24T09:12:58.622Z,69.77
2017-10-24T09:16:23.166Z,79.93
2017-10-24T09:23:14.377Z,60.47
2017-10-24T09:26:34.527Z,72.63
2017-10-24T09:29:36.427Z,78.07
2017-10-24T09:32:38.801Z,74.53
2017-10-24T09:35:40.718Z,57.47
2017-10-24T09:38:43.714Z,58.07
2017-10-24T09:41:45.632Z,60.57
2017-10-24T09:44:48.037Z,53.83
2017-10-24T09:47:49.960Z,60.13
2017-10-24T09:51:04.325Z,58.90
2017-10-24T09:54:06.333Z,55.03
2017-10-24T09:57:08.725Z,53.20
2017-10-24T10:00:10.633Z,49.00
2017-10-24T10:03:12.986Z,47.13
2017-10-24T10:06:19.841Z,44.53
2017-10-24T10:09:22.165Z,42.60
2017-10-24T10:12:24.085Z,40.67
2017-10-24T10:15:27.172Z,38.00
2017-10-24T10:18:29.118Z,35.77
2017-10-24T10:21:31.418Z,32.83
2017-10-24T10:24:35.147Z,37.93
2017-10-24T10:27:37.441Z,30.83
2017-10-24T10:30:39.343Z,32.43
2017-10-24T10:33:42.558Z,28.90
2017-10-24T10:36:45.255Z,28.80
2017-10-24T10:39:47.651Z,27.08
2017-10-24T10:42:50.334Z,30.90
2017-10-24T10:45:52.611Z,26.03
2017-10-24T10:48:54.589Z,28.80
2017-10-24T10:51:56.820Z,24.57
2017-10-24T10:54:59.519Z,23.43
2017-10-24T10:58:02.739Z,23.83
2017-10-24T11:01:06.268Z,21.75
2017-10-24T11:04:08.537Z,21.42
2017-10-24T11:07:11.335Z,23.87
2017-10-24T11:10:14.449Z,22.83
2017-10-24T11:13:17.213Z,21.08
2017-10-24T11:16:20.086Z,19.75
2017-10-24T11:19:22.009Z,21.60
2017-10-24T11:22:24.290Z,19.50
2017-10-24T11:25:26.286Z,19.62
2017-10-24T11:28:28.647Z,19.08
2017-10-24T11:31:30.679Z,19.47
2017-10-24T11:34:33.754Z,20.77
2017-10-24T11:37:35.797Z,20.73
2017-10-24T11:40:38.158Z,20.30
2017-10-24T11:43:40.112Z,23.08
2017-10-24T11:46:42.065Z,20.35
2017-10-24T11:49:43.986Z,20.05
2017-10-24T11:52:45.963Z,21.55
2017-10-24T11:55:47.983Z,19.35
2017-10-24T11:58:51.410Z,19.40
2017-10-24T12:01:54.165Z,20.35
2017-10-24T12:04:56.757Z,19.55
2017-10-24T12:07:58.669Z,19.35
2017-10-24T12:11:00.613Z,21.67
2017-10-24T12:14:02.513Z,21.42
2017-10-24T12:17:04.620Z,21.92
2017-10-24T12:20:06.539Z,22.67
2017-10-24T12:23:08.478Z,23.33
2017-10-24T12:26:10.471Z,23.77
2017-10-24T12:29:12.444Z,23.75
2017-10-24T12:32:14.409Z,23.23
2017-10-24T12:35:16.727Z,23.40
2017-10-24T12:38:19.508Z,24.45
2017-10-24T12:41:21.510Z,22.70
2017-10-24T12:44:23.444Z,24.30
2017-10-24T12:47:25.390Z,23.87
2017-10-24T12:50:27.430Z,24.42
2017-10-24T12:53:29.554Z,23.48
2017-10-24T12:56:32.354Z,24.65
2017-10-24T12:59:35.154Z,26.00
2017-10-24T13:02:37.811Z,24.50
2017-10-24T13:05:39.758Z,24.95
2017-10-24T13:08:41.677Z,25.30
2017-10-24T13:11:43.612Z,25.52
2017-10-24T13:14:46.318Z,26.98
2017-10-24T13:17:48.263Z,26.85
2017-10-24T13:20:50.260Z,25.35
2017-10-24T13:23:53.032Z,27.33
2017-10-24T13:26:55.014Z,27.45
2017-10-24T13:29:57.282Z,27.20
2017-10-24T13:32:59.207Z,27.45
2017-10-24T13:36:01.208Z,30.75
2017-10-24T13:39:03.914Z,119.68
2017-10-24T13:42:05.982Z,52.28
2017-10-24T13:45:07.877Z,33.30
2017-10-24T13:48:10.979Z,31.65
2017-10-24T13:51:13.651Z,36.42
2017-10-24T13:54:15.802Z,46.35
2017-10-24T13:57:17.719Z,50.28
2017-10-24T14:00:20.009Z,27.00
2017-10-24T14:03:22.022Z,34.63
2017-10-24T14:06:25.066Z,38.78
2017-10-24T14:09:26.995Z,42.90
2017-10-24T14:12:28.956Z,40.85
2017-10-24T14:15:30.963Z,43.03
2017-10-24T14:18:32.962Z,34.38
2017-10-24T14:21:35.735Z,51.45
2017-10-24T14:24:37.723Z,38.90
2017-10-24T14:27:39.801Z,27.95
2017-10-24T14:30:41.745Z,32.00
2017-10-24T14:33:43.652Z,32.33
2017-10-24T14:36:45.672Z,28.25
2017-10-24T14:39:47.653Z,27.52
2017-10-24T14:42:49.634Z,27.77
2017-10-24T14:45:51.578Z,28.95
2017-10-24T14:48:53.889Z,29.30
2017-10-24T14:51:55.798Z,27.70
2017-10-24T14:54:58.778Z,26.50
2017-10-24T14:58:00.714Z,25.55
2017-10-24T15:01:02.660Z,26.83
2017-10-24T15:04:04.962Z,27.05
2017-10-24T15:07:08.053Z,29.05
2017-10-24T15:10:10.075Z,24.05
2017-10-24T15:13:12.437Z,25.17
2017-10-24T15:16:14.368Z,26.00
2017-10-24T15:19:16.295Z,26.12
2017-10-24T15:22:18.255Z,24.17
2017-10-24T15:25:20.991Z,23.20
2017-10-24T15:28:22.966Z,22.87
2017-10-24T15:31:25.743Z,22.67
2017-10-24T15:34:27.752Z,24.67
2017-10-24T15:37:30.425Z,22.90
2017-10-24T15:40:32.443Z,25.05
2017-10-24T15:43:35.241Z,24.35
2017-10-24T15:46:38.053Z,29.17
2017-10-24T15:49:40.849Z,28.75
2017-10-24T15:52:43.646Z,30.10
2017-10-24T15:55:45.609Z,30.77
2017-10-24T15:58:47.551Z,35.33
2017-10-24T16:01:49.571Z,31.70
2017-10-24T16:04:51.512Z,32.17
2017-10-24T16:07:53.427Z,30.10
2017-10-24T16:10:55.344Z,31.10
2017-10-24T16:13:57.269Z,31.10
2017-10-24T16:16:59.192Z,38.25
2017-10-24T16:20:01.879Z,33.75
2017-10-24T16:23:03.802Z,31.08
2017-10-24T16:26:06.506Z,31.58
2017-10-24T16:29:08.466Z,35.78
2017-10-24T16:32:10.422Z,32.40
2017-10-24T16:35:12.322Z,30.70
2017-10-24T16:38:14.591Z,36.50
2017-10-24T16:41:16.654Z,31.40
2017-10-24T16:44:18.658Z,34.35
2017-10-24T16:47:20.606Z,32.87
2017-10-24T16:50:22.525Z,30.98
2017-10-24T16:53:24.612Z,32.05
2017-10-24T16:56:26.620Z,30.55
2017-10-24T16:59:29.294Z,34.08
2017-10-24T17:02:31.221Z,32.83
2017-10-24T17:05:33.923Z,35.13
2017-10-24T17:08:36.814Z,34.15
2017-10-24T17:11:39.485Z,31.20
2017-10-24T17:14:41.386Z,31.20
2017-10-24T17:17:44.165Z,31.70
2017-10-24T17:20:46.871Z,30.40
2017-10-24T17:23:48.834Z,30.17
2017-10-24T17:26:50.862Z,29.92
2017-10-24T17:29:53.638Z,28.15
2017-10-24T17:32:55.537Z,29.02
2017-10-24T17:35:57.502Z,27.85
2017-10-24T17:38:59.536Z,27.80
2017-10-24T17:42:01.584Z,29.27
2017-10-24T17:45:03.509Z,27.55
2017-10-24T17:48:05.559Z,25.92
2017-10-24T17:51:08.379Z,26.00
2017-10-24T17:54:10.498Z,30.37
2017-10-24T17:57:12.549Z,27.70
2017-10-24T18:00:15.218Z,26.80
2017-10-24T18:03:17.254Z,28.40
2017-10-24T18:06:19.193Z,29.50
2017-10-24T18:09:21.172Z,24.90
2017-10-24T18:12:23.157Z,25.65
2017-10-24T18:15:25.174Z,25.92
2017-10-24T18:18:27.927Z,26.05
2017-10-24T18:21:29.943Z,26.50
2017-10-24T18:24:31.914Z,29.52
2017-10-24T18:27:33.891Z,29.10
2017-10-24T18:30:35.886Z,26.75
2017-10-24T18:33:37.857Z,27.30
2017-10-24T18:36:39.849Z,28.12
2017-10-24T18:39:41.845Z,28.55
2017-10-24T18:42:43.849Z,28.67
2017-10-24T18:45:46.643Z,28.98
2017-10-24T18:48:49.325Z,30.02
2017-10-24T18:51:51.481Z,33.00
2017-10-24T18:54:53.382Z,35.03
2017-10-24T18:57:55.462Z,34.67
2017-10-24T19:00:57.473Z,34.67
2017-10-24T19:03:59.454Z,35.08
2017-10-24T19:07:02.269Z,36.95
2017-10-24T19:10:05.054Z,37.65
2017-10-24T19:13:07.005Z,37.10
2017-10-24T19:16:09.315Z,39.28
2017-10-24T19:19:11.241Z,42.17
2017-10-24T19:22:14.113Z,40.10
2017-10-24T19:25:16.077Z,43.10
2017-10-24T19:28:18.072Z,44.85
2017-10-24T19:31:19.999Z,40.95
2017-10-24T19:34:22.078Z,40.17
2017-10-24T19:37:24.081Z,41.63
2017-10-24T19:40:26.011Z,41.00
2017-10-24T19:43:28.763Z,42.97
2017-10-24T19:46:31.633Z,48.70
2017-10-24T19:49:34.444Z,42.22
2017-10-24T19:52:37.251Z,43.45
2017-10-24T19:55:40.042Z,40.47
2017-10-24T19:58:42.809Z,44.45
2017-10-24T20:01:44.823Z,45.90
2017-10-24T20:04:47.515Z,49.63
2017-10-24T20:07:49.472Z,47.95
2017-10-24T20:10:51.417Z,50.03
2017-10-24T20:13:53.316Z,58.10
2017-10-24T20:16:55.333Z,52.90
2017-10-24T20:19:57.324Z,57.65
2017-10-24T20:22:59.282Z,55.85
2017-10-24T20:26:01.210Z,59.55
2017-10-24T20:29:03.977Z,63.90
2017-10-24T20:32:05.911Z,68.22
2017-10-24T20:35:07.881Z,67.20
2017-10-24T20:38:10.615Z,65.50
2017-10-24T20:41:12.629Z,64.43
2017-10-24T20:44:14.557Z,61.85
2017-10-24T20:47:16.503Z,63.45
2017-10-24T20:50:18.404Z,60.33
2017-10-24T20:53:21.172Z,60.80
2017-10-24T20:56:23.156Z,63.40
2017-10-24T20:59:25.171Z,64.85
2017-10-24T21:02:27.886Z,69.87
2017-10-24T21:05:29.835Z,65.03
2017-10-24T21:08:31.818Z,63.00
2017-10-24T21:11:33.741Z,65.97
2017-10-24T21:14:35.695Z,67.47
2017-10-24T21:17:38.473Z,72.37
2017-10-24T21:20:40.383Z,71.87
2017-10-24T21:23:43.150Z,77.85
2017-10-24T21:26:45.078Z,83.03
2017-10-24T21:29:47.832Z,83.10
2017-10-24T21:32:50.079Z,78.22
2017-10-24T21:35:52.127Z,88.00
2017-10-24T21:38:54.946Z,97.20
2017-10-24T21:41:57.653Z,94.55
2017-10-24T21:45:00.430Z,106.93
2017-10-24T21:48:02.411Z,103.70
2017-10-24T21:51:04.399Z,111.82
2017-10-24T21:54:06.473Z,108.30
2017-10-24T21:57:08.475Z,112.45
2017-10-24T22:00:11.168Z,109.05
2017-10-24T22:03:13.083Z,100.53
2017-10-24T22:06:15.034Z,106.93
2017-10-24T22:09:17.842Z,109.40
2017-10-24T22:12:20.552Z,107.47
2017-10-24T22:15:23.309Z,109.07
2017-10-24T22:18:25.241Z,98.70
2017-10-24T22:21:27.379Z,116.40
2017-10-24T22:24:29.307Z,117.65
2017-10-24T22:27:32.067Z,113.68
2017-10-24T22:30:34.045Z,111.15
2017-10-24T22:33:36.046Z,121.95
2017-10-24T22:36:38.054Z,115.03
2017-10-24T22:39:40.047Z,125.70
2017-10-24T22:42:42.082Z,130.10
2017-10-24T22:45:44.089Z,124.82
2017-10-24T22:48:46.043Z,123.95
2017-10-24T22:51:48.038Z,117.30
2017-10-24T22:54:50.038Z,115.03
2017-10-24T22:57:53.340Z,122.68
2017-10-24T23:00:55.322Z,121.50
2017-10-24T23:03:59.065Z,120.28
2017-10-24T23:07:01.753Z,131.77
2017-10-24T23:10:03.764Z,119.95
2017-10-24T23:13:05.835Z,117.22
2017-10-24T23:16:08.495Z,119.80
2017-10-24T23:19:10.521Z,112.72
2017-10-24T23:22:13.222Z,121.07
2017-10-24T23:25:15.908Z,119.47
2017-10-24T23:28:17.863Z,122.78
2017-10-24T23:31:19.818Z,125.20
2017-10-24T23:34:21.724Z,135.95
2017-10-24T23:37:23.743Z,127.90
2017-10-24T23:40:25.690Z,124.28
2017-10-24T23:43:27.663Z,137.15
2017-10-24T23:46:29.670Z,123.30
2017-10-24T23:49:31.671Z,116.22
2017-10-24T23:52:34.441Z,111.85
2017-10-24T23:55:36.456Z,118.57
2017-10-24T23:58:38.372Z,109.28
